Time;durP1;ratioP1;P1;durP2;ratioP2;P2;SDS_P1;SDS_P2;PMS_P1;PMS_P2;Temp;Humidity;BMP_temperature;BMP_pressure;BME280_temperature;BME280_humidity;BME280_pressure;Samples;Min_cycle;Max_cycle;Signal;HPM_P1;HPM_P2
2022/02/28 00:02:10;;;;;;;;;;;;;;;21.23;38.20;102144.09;7280838;19;151858;-53
2022/02/28 00:04:38;;;;;;;;;;;;;;;21.21;38.52;102147.19;7279149;19;153402;-52
2022/02/28 00:07:05;;;;;;;;;;;;;;;21.21;38.50;102143.56;7278473;19;153655;-54
2022/02/28 00:09:33;;;;;;;;;;;;;;;21.20;38.17;102136.25;7277853;19;152478;-53
2022/02/28 00:12:00;;;;;;;;;;;;;;;21.18;38.55;102139.34;7273132;19;153253;-53
2022/02/28 00:14:28;;;;;;;;;;;;;;;21.17;38.81;102136.81;7277449;19;154016;-53
2022/02/28 00:16:55;;;;;;;;;;;;;;;21.15;38.95;102147.50;7284547;19;152269;-53
2022/02/28 00:19:22;;;;;;;;;;;;;;;21.13;39.21;102144.13;7275534;19;154190;-53
2022/02/28 00:21:49;;;;;;;;;;;;;;;21.12;39.01;102145.25;7280314;19;151874;-54
2022/02/28 00:24:17;;;;;;;;;;;;;;;21.10;39.32;102139.03;7278441;19;153337;-53
2022/02/28 00:26:44;;;;;;;;;;;;;;;21.09;39.41;102145.78;7275924;19;154297;-53
2022/02/28 00:29:11;;;;;;;;;;;;;;;21.07;39.23;102139.63;7279526;19;151998;-52
2022/02/28 00:31:38;;;;;;;;;;;;;;;21.05;39.36;102141.84;7279831;19;154063;-52
2022/02/28 00:34:05;;;;;;;;;;;;;;;21.03;39.29;102147.75;7274845;19;155326;-53
2022/02/28 00:36:34;;;;;;;;;;;;;;;21.02;39.33;102148.06;7277243;19;151835;-53
2022/02/28 00:39:01;;;;;;;;;;;;;;;21.00;39.15;102148.31;7285809;19;153420;-52
2022/02/28 00:41:28;;;;;;;;;;;;;;;20.99;39.38;102146.63;7277675;19;151614;-53
2022/02/28 00:43:55;;;;;;;;;;;;;;;20.97;39.33;102148.06;7278502;19;153365;-53
2022/02/28 00:46:22;;;;;;;;;;;;;;;20.95;39.37;102141.84;7275691;19;153290;-53
2022/02/28 00:48:49;;;;;;;;;;;;;;;20.92;39.47;102146.09;7278188;19;151978;-54
2022/02/28 00:51:17;;;;;;;;;;;;;;;20.91;39.39;102141.59;7275823;19;153433;-54
2022/02/28 00:53:44;;;;;;;;;;;;;;;20.88;39.67;102139.34;7275442;19;154008;-53
2022/02/28 00:56:10;;;;;;;;;;;;;;;20.88;39.73;102146.94;7276456;19;151877;-54
2022/02/28 00:58:37;;;;;;;;;;;;;;;20.85;39.81;102142.72;7277432;19;153477;-53
2022/02/28 01:01:04;;;;;;;;;;;;;;;20.83;39.45;102144.97;7283243;19;154245;-53
2022/02/28 01:03:32;;;;;;;;;;;;;;;20.80;39.40;102148.34;7277327;19;155272;-53
2022/02/28 01:05:59;;;;;;;;;;;;;;;20.79;39.40;102146.66;7275032;19;154398;-53
2022/02/28 01:08:26;;;;;;;;;;;;;;;20.76;39.80;102148.06;7275455;19;151991;-54
2022/02/28 01:10:53;;;;;;;;;;;;;;;20.72;39.50;102152.53;7275045;19;152656;-53
2022/02/28 01:13:21;;;;;;;;;;;;;;;20.71;39.57;102152.84;7272763;19;153402;-54
2022/02/28 01:15:48;;;;;;;;;;;;;;;20.69;39.32;102149.47;7276435;19;152603;-53
2022/02/28 01:18:18;;;;;;;;;;;;;;;20.66;39.61;102148.06;7276057;19;153935;-53
2022/02/28 01:20:47;;;;;;;;;;;;;;;20.62;39.73;102152.56;7280557;19;154178;-54
2022/02/28 01:23:14;;;;;;;;;;;;;;;20.60;39.61;102154.78;7276832;19;153656;-53
2022/02/28 01:25:41;;;;;;;;;;;;;;;20.58;39.28;102156.22;7273067;19;153564;-53
2022/02/28 01:28:08;;;;;;;;;;;;;;;20.56;39.52;102150.03;7272435;19;151876;-53
2022/02/28 01:30:35;;;;;;;;;;;;;;;20.51;39.66;102150.00;7277823;19;154460;-53
2022/02/28 01:33:02;;;;;;;;;;;;;;;20.51;39.25;102144.41;7283745;19;155552;-54
2022/02/28 01:35:29;;;;;;;;;;;;;;;20.47;39.54;102144.13;7281717;19;152525;-54
2022/02/28 01:37:56;;;;;;;;;;;;;;;20.46;39.57;102148.03;7282446;19;153329;-54
2022/02/28 01:40:24;;;;;;;;;;;;;;;20.43;39.37;102143.00;7280268;19;153476;-53
2022/02/28 01:42:51;;;;;;;;;;;;;;;20.42;39.32;102144.09;7290116;19;152005;-54
2022/02/28 01:45:21;;;;;;;;;;;;;;;20.38;39.62;102148.59;7280830;19;155944;-53
2022/02/28 01:47:50;;;;;;;;;;;;;;;20.36;39.75;102136.78;7282214;19;151642;-54
2022/02/28 01:50:17;;;;;;;;;;;;;;;20.33;39.53;102148.59;7280717;19;153787;-53
2022/02/28 01:52:45;;;;;;;;;;;;;;;20.30;39.79;102163.19;7282056;19;154199;-54
2022/02/28 01:55:13;;;;;;;;;;;;;;;20.27;40.04;102164.53;7282746;19;152109;-53
2022/02/28 01:57:40;;;;;;;;;;;;;;;20.26;40.18;102165.63;7280554;19;153959;-53
2022/02/28 02:00:09;;;;;;;;;;;;;;;20.22;39.98;102164.50;7282359;19;153816;-53
2022/02/28 02:02:36;;;;;;;;;;;;;;;20.19;40.34;102162.28;7282005;19;152861;-53
2022/02/28 02:05:03;;;;;;;;;;;;;;;20.16;40.08;102162.84;7290207;19;152727;-53
2022/02/28 02:07:30;;;;;;;;;;;;;;;20.14;40.31;102148.22;7282510;19;151800;-53
2022/02/28 02:09:58;;;;;;;;;;;;;;;20.15;40.33;102149.06;7283901;19;153550;-53
2022/02/28 02:12:26;;;;;;;;;;;;;;;20.11;40.45;102150.75;7280823;19;153489;-54
2022/02/28 02:14:54;;;;;;;;;;;;;;;20.07;39.97;102144.84;7282955;19;151598;-53
2022/02/28 02:17:21;;;;;;;;;;;;;;;20.05;39.93;102141.47;7283843;19;153254;-53
2022/02/28 02:19:51;;;;;;;;;;;;;;;20.05;40.49;102149.88;7278506;19;152009;-53
2022/02/28 02:22:21;;;;;;;;;;;;;;;20.05;40.41;102152.69;7283789;19;151692;-53
2022/02/28 02:24:49;;;;;;;;;;;;;;;19.98;40.58;102152.97;7283855;19;153610;-53
2022/02/28 02:27:16;;;;;;;;;;;;;;;19.99;40.48;102160.22;7290048;19;153573;-54
2022/02/28 02:29:43;;;;;;;;;;;;;;;19.93;40.37;102158.56;7284048;19;153606;-53
2022/02/28 02:32:11;;;;;;;;;;;;;;;19.91;40.57;102162.72;7280922;19;153492;-53
2022/02/28 02:34:38;;;;;;;;;;;;;;;19.89;40.28;102162.19;7283960;19;151666;-53
2022/02/28 02:37:05;;;;;;;;;;;;;;;19.87;40.68;102156.84;7282134;19;152875;-52
2022/02/28 02:39:33;;;;;;;;;;;;;;;19.87;40.51;102156.84;7280531;19;154194;-54
2022/02/28 02:41:59;;;;;;;;;;;;;;;19.82;40.77;102154.00;7281950;19;152074;-53
2022/02/28 02:44:33;;;;;;;;;;;;;;;19.82;40.78;102156.81;7281676;19;153561;-53
2022/02/28 02:47:00;;;;;;;;;;;;;;;19.79;40.79;102151.75;7278160;19;154782;-54
2022/02/28 02:49:28;;;;;;;;;;;;;;;19.77;40.89;102151.19;7290416;19;152044;-53
2022/02/28 02:51:55;;;;;;;;;;;;;;;19.77;40.90;102147.53;7278251;19;154194;-53
2022/02/28 02:54:23;;;;;;;;;;;;;;;19.73;40.57;102144.44;7280291;19;152039;-54
2022/02/28 02:56:49;;;;;;;;;;;;;;;19.72;40.73;102142.75;7280369;19;154423;-54
2022/02/28 02:59:17;;;;;;;;;;;;;;;19.71;41.12;102145.84;7282081;19;154129;-52
2022/02/28 03:01:44;;;;;;;;;;;;;;;19.70;40.94;102138.53;7281543;19;152356;-53
2022/02/28 03:04:11;;;;;;;;;;;;;;;19.69;40.68;102146.09;7283055;19;153377;-53
2022/02/28 03:06:42;;;;;;;;;;;;;;;19.67;40.84;102147.50;7281419;19;154176;-53
2022/02/28 03:09:13;;;;;;;;;;;;;;;19.64;41.04;102156.44;7281476;19;151935;-53
2022/02/28 03:11:43;;;;;;;;;;;;;;;19.61;40.79;102149.44;7286953;19;155281;-53
2022/02/28 03:14:11;;;;;;;;;;;;;;;19.57;41.16;102151.09;7282908;19;152626;-53
2022/02/28 03:16:38;;;;;;;;;;;;;;;19.57;40.81;102155.88;7281968;19;152801;-53
2022/02/28 03:19:17;;;;;;;;;;;;;;;19.55;40.98;102147.72;7280812;19;154195;-54
2022/02/28 03:21:44;;;;;;;;;;;;;;;19.53;41.15;102149.97;7279436;19;151945;-53
2022/02/28 03:24:11;;;;;;;;;;;;;;;19.51;41.12;102154.97;7281652;19;152992;-54
2022/02/28 03:26:38;;;;;;;;;;;;;;;19.50;41.21;102151.34;7277738;19;153956;-53
2022/02/28 03:29:06;;;;;;;;;;;;;;;19.47;41.34;102163.09;7281763;19;152628;-53
2022/02/28 03:31:33;;;;;;;;;;;;;;;19.49;41.54;102171.22;7285987;19;153002;-53
2022/02/28 03:34:00;;;;;;;;;;;;;;;19.46;41.40;102161.41;7279224;19;151791;-53
2022/02/28 03:36:27;;;;;;;;;;;;;;;19.46;41.30;102174.56;7282118;19;152805;-53
2022/02/28 03:38:55;;;;;;;;;;;;;;;19.44;41.34;102174.84;7280297;19;152732;-53
2022/02/28 03:41:21;;;;;;;;;;;;;;;19.42;41.44;102173.41;7279834;19;151752;-53
2022/02/28 03:43:52;;;;;;;;;;;;;;;19.40;41.51;102164.41;7281512;19;152734;-53
2022/02/28 03:46:19;;;;;;;;;;;;;;;19.37;41.30;102168.59;7279783;19;153671;-53
2022/02/28 03:48:47;;;;;;;;;;;;;;;19.39;41.55;102159.94;7279817;19;152190;-53
2022/02/28 03:51:14;;;;;;;;;;;;;;;19.35;41.77;102167.19;7278555;19;153419;-53
2022/02/28 03:53:41;;;;;;;;;;;;;;;19.35;41.78;102165.22;7286656;19;153460;-53
2022/02/28 03:56:08;;;;;;;;;;;;;;;19.34;41.71;102168.31;7281254;19;152880;-53
2022/02/28 03:58:38;;;;;;;;;;;;;;;19.32;41.61;102171.38;7280210;19;155952;-53
2022/02/28 04:01:05;;;;;;;;;;;;;;;19.32;41.38;102159.31;7281025;19;152043;-53
2022/02/28 04:03:33;;;;;;;;;;;;;;;19.27;41.42;102165.72;7279595;19;152736;-54
2022/02/28 04:05:59;;;;;;;;;;;;;;;19.32;41.55;102164.91;7279286;19;155119;-53
2022/02/28 04:08:27;;;;;;;;;;;;;;;19.26;41.57;102166.03;7281721;19;151929;-53
2022/02/28 04:10:54;;;;;;;;;;;;;;;19.26;41.44;102160.41;7277392;19;152976;-53
2022/02/28 04:13:21;;;;;;;;;;;;;;;19.24;41.69;102165.44;7279483;19;153492;-53
2022/02/28 04:15:48;;;;;;;;;;;;;;;19.23;41.78;102169.34;7286203;19;151518;-54
2022/02/28 04:18:14;;;;;;;;;;;;;;;19.19;41.55;102169.03;7278766;19;154058;-52
2022/02/28 04:20:41;;;;;;;;;;;;;;;19.19;41.67;102159.78;7280326;19;151762;-53
2022/02/28 04:23:08;;;;;;;;;;;;;;;19.18;41.57;102152.50;7277909;19;152758;-53
2022/02/28 04:25:36;;;;;;;;;;;;;;;19.15;41.89;102159.50;7278655;19;155681;-54
2022/02/28 04:28:13;;;;;;;;;;;;;;;19.14;41.68;102154.16;7280838;19;152326;-53
2022/02/28 04:30:39;;;;;;;;;;;;;;;19.13;41.82;102152.47;7279150;19;152912;-54
2022/02/28 04:33:06;;;;;;;;;;;;;;;19.11;41.40;102155.56;7278211;19;154559;-53
2022/02/28 04:35:33;;;;;;;;;;;;;;;19.09;41.93;102155.81;7279899;19;152631;-53
2022/02/28 04:38:05;;;;;;;;;;;;;;;19.08;41.89;102147.66;7287276;19;153249;-53
2022/02/28 04:40:32;;;;;;;;;;;;;;;19.08;41.71;102145.72;7279293;19;151821;-53
2022/02/28 04:42:59;;;;;;;;;;;;;;;19.06;41.94;102147.09;7278259;19;152725;-54
2022/02/28 04:45:26;;;;;;;;;;;;;;;19.05;41.56;102145.41;7278313;19;154030;-53
2022/02/28 04:47:57;;;;;;;;;;;;;;;19.04;41.48;102150.16;7279812;19;152010;-53
2022/02/28 04:50:28;;;;;;;;;;;;;;;19.02;41.82;102145.97;7277373;19;152888;-53
2022/02/28 04:52:55;;;;;;;;;;;;;;;19.00;41.81;102153.78;7278970;19;153953;-53
2022/02/28 04:55:22;;;;;;;;;;;;;;;18.99;42.12;102143.69;7278699;19;151847;-53
2022/02/28 04:57:52;;;;;;;;;;;;;;;18.98;42.01;102139.22;7277541;19;152806;-54
2022/02/28 05:00:19;;;;;;;;;;;;;;;18.96;41.80;102142.28;7283626;19;153710;-53
2022/02/28 05:02:46;;;;;;;;;;;;;;;18.95;41.77;102140.56;7279289;19;153668;-54
2022/02/28 05:05:13;;;;;;;;;;;;;;;18.94;41.97;102152.88;7279195;19;153252;-53
2022/02/28 05:07:40;;;;;;;;;;;;;;;18.92;42.01;102155.13;7282955;19;151668;-53
2022/02/28 05:10:08;;;;;;;;;;;;;;;18.92;42.19;102152.31;7287108;19;153225;-53
2022/02/28 05:12:44;;;;;;;;;;;;;;;18.95;42.18;102157.38;7280649;19;153408;-53
2022/02/28 05:15:11;;;;;;;;;;;;;;;18.99;42.12;102155.72;7285558;19;151990;-54
2022/02/28 05:17:38;;;;;;;;;;;;;;;19.01;42.57;102153.50;7283850;19;154931;-53
2022/02/28 05:20:05;;;;;;;;;;;;;;;19.04;42.51;102157.72;7284666;19;153513;-53
2022/02/28 05:22:32;;;;;;;;;;;;;;;19.07;42.38;102152.44;7292925;19;151715;-54
2022/02/28 05:25:00;;;;;;;;;;;;;;;19.12;43.04;102154.44;7283808;19;154023;-53
2022/02/28 05:27:26;;;;;;;;;;;;;;;19.16;42.92;102149.13;7283434;19;151754;-53
2022/02/28 05:29:53;;;;;;;;;;;;;;;19.20;43.31;102153.09;7285117;19;152831;-53
2022/02/28 05:32:20;;;;;;;;;;;;;;;19.25;42.89;102153.97;7280962;19;154118;-53
2022/02/28 05:34:47;;;;;;;;;;;;;;;19.29;43.34;102163.53;7283434;19;151853;-53
2022/02/28 05:37:14;;;;;;;;;;;;;;;19.36;43.62;102163.25;7284374;19;152983;-53
2022/02/28 05:39:41;;;;;;;;;;;;;;;19.41;43.85;102164.16;7282345;19;153733;-53
2022/02/28 05:42:08;;;;;;;;;;;;;;;19.46;43.66;102157.75;7288813;19;152333;-53
2022/02/28 05:44:35;;;;;;;;;;;;;;;19.51;43.49;102157.78;7284482;19;155112;-53
2022/02/28 05:47:09;;;;;;;;;;;;;;;19.57;43.46;102155.88;7284599;19;151989;-53
2022/02/28 05:49:55;;;;;;;;;;;;;;;19.64;43.41;102159.25;7281814;19;151952;-54
2022/02/28 05:52:24;;;;;;;;;;;;;;;19.71;44.22;102151.44;7280240;19;152305;-53
2022/02/28 05:54:52;;;;;;;;;;;;;;;19.75;43.94;102147.81;7284518;19;151780;-54
2022/02/28 05:57:19;;;;;;;;;;;;;;;19.81;43.50;102137.44;7284165;19;152672;-53
2022/02/28 05:59:46;;;;;;;;;;;;;;;19.86;43.70;102137.47;7283126;19;152177;-52
2022/02/28 06:02:13;;;;;;;;;;;;;;;19.91;43.30;102129.91;7283240;19;152138;-53
2022/02/28 06:04:39;;;;;;;;;;;;;;;19.97;43.06;102140.06;7288974;19;154261;-53
2022/02/28 06:07:06;;;;;;;;;;;;;;;20.02;42.99;102133.63;7283913;19;152474;-53
2022/02/28 06:09:33;;;;;;;;;;;;;;;20.07;42.67;102135.59;7284184;19;153233;-54
2022/02/28 06:12:00;;;;;;;;;;;;;;;20.13;42.92;102149.34;7279668;19;154238;-54
2022/02/28 06:14:27;;;;;;;;;;;;;;;20.18;42.51;102146.53;7284104;19;151950;-54
2022/02/28 06:16:58;;;;;;;;;;;;;;;20.23;42.58;102148.53;7283334;19;153141;-54
2022/02/28 06:19:26;;;;;;;;;;;;;;;20.29;42.48;102142.66;7282451;19;153224;-54
2022/02/28 06:22:02;;;;;;;;;;;;;;;20.34;42.82;102136.25;7284080;19;151778;-53
2022/02/28 06:24:31;;;;;;;;;;;;;;;20.38;42.29;102141.03;7284322;19;153572;-54
2022/02/28 06:26:58;;;;;;;;;;;;;;;20.43;42.44;102140.19;7289156;19;153366;-53
2022/02/28 06:29:25;;;;;;;;;;;;;;;20.49;42.27;102146.66;7280863;19;154026;-53
2022/02/28 06:31:52;;;;;;;;;;;;;;;20.52;42.51;102144.13;7281604;19;153596;-53
2022/02/28 06:34:21;;;;;;;;;;;;;;;20.57;42.09;102144.13;7283091;19;151917;-54
2022/02/28 06:36:48;;;;;;;;;;;;;;;20.62;42.17;102148.91;7283262;19;152653;-53
2022/02/28 06:39:15;;;;;;;;;;;;;;;20.67;42.02;102143.31;7281545;19;153484;-53
2022/02/28 06:41:42;;;;;;;;;;;;;;;20.71;42.01;102127.56;7283555;19;151844;-54
2022/02/28 06:44:10;;;;;;;;;;;;;;;20.76;42.10;102133.16;7282618;19;152789;-54
2022/02/28 06:46:37;;;;;;;;;;;;;;;20.80;42.10;102142.72;7280774;19;154587;-54
2022/02/28 06:49:03;;;;;;;;;;;;;;;20.84;42.46;102141.91;7290695;19;151749;-54
2022/02/28 06:51:30;;;;;;;;;;;;;;;20.88;42.06;102150.59;7279551;19;154173;-53
2022/02/28 06:53:57;;;;;;;;;;;;;;;20.92;41.77;102159.28;7283166;19;151894;-53
2022/02/28 06:56:24;;;;;;;;;;;;;;;20.97;41.48;102160.13;7282166;19;152943;-54
2022/02/28 06:58:51;;;;;;;;;;;;;;;21.00;41.44;102162.38;7282236;19;153484;-54
2022/02/28 07:01:18;;;;;;;;;;;;;;;21.04;41.42;102168.25;7282545;19;152267;-53
2022/02/28 07:03:45;;;;;;;;;;;;;;;21.08;41.64;102180.63;7281213;19;151855;-54
2022/02/28 07:06:22;;;;;;;;;;;;;;;21.11;41.35;102178.13;7280485;19;153453;-53
2022/02/28 07:08:49;;;;;;;;;;;;;;;21.16;41.34;102182.91;7282857;19;151910;-54
2022/02/28 07:11:18;;;;;;;;;;;;;;;21.20;41.47;102172.78;7289276;19;153200;-54
2022/02/28 07:13:45;;;;;;;;;;;;;;;21.24;41.47;102182.34;7279073;19;151920;-53
2022/02/28 07:16:14;;;;;;;;;;;;;;;21.28;41.65;102194.69;7282800;19;154138;-53
2022/02/28 07:18:42;;;;;;;;;;;;;;;21.32;42.00;102201.44;7279805;19;153588;-53
2022/02/28 07:21:08;;;;;;;;;;;;;;;21.38;41.31;102205.94;7281944;19;152084;-53
2022/02/28 07:23:35;;;;;;;;;;;;;;;21.42;41.07;102200.59;7281584;19;152614;-53
2022/02/28 07:26:15;;;;;;;;;;;;;;;21.44;40.68;102196.34;7280595;19;154618;-53
2022/02/28 07:28:49;;;;;;;;;;;;;;;21.47;40.65;102190.19;7281140;19;151967;-53
2022/02/28 07:31:34;;;;;;;;;;;;;;;21.47;39.55;102194.97;7280545;19;152751;-53
2022/02/28 07:34:01;;;;;;;;;;;;;;;21.44;38.73;102198.34;7287144;19;151970;-54
2022/02/28 07:36:28;;;;;;;;;;;;;;;21.45;38.52;102198.03;7282405;19;152818;-54
2022/02/28 07:38:55;;;;;;;;;;;;;;;21.43;38.19;102208.75;7280911;19;153499;-54
2022/02/28 07:41:22;;;;;;;;;;;;;;;21.43;37.81;102196.66;7252292;19;152384;-53
2022/02/28 07:43:49;;;;;;;;;;;;;;;21.42;38.11;102190.19;7264689;19;156725;-53
2022/02/28 07:46:17;;;;;;;;;;;;;;;21.42;38.15;102195.81;7279157;19;153289;-54
2022/02/28 07:48:46;;;;;;;;;;;;;;;21.43;37.53;102200.31;7278560;19;151900;-53
2022/02/28 07:51:13;;;;;;;;;;;;;;;21.43;37.86;102193.84;7278737;19;152840;-54
2022/02/28 07:53:40;;;;;;;;;;;;;;;21.45;37.58;102194.38;7284901;19;153799;-53
2022/02/28 07:56:11;;;;;;;;;;;;;;;21.44;37.31;102199.16;7279714;19;152667;-53
2022/02/28 07:58:43;;;;;;;;;;;;;;;21.43;37.52;102210.72;7278872;19;154067;-53
2022/02/28 08:01:11;;;;;;;;;;;;;;;21.43;37.21;102193.84;7278970;19;151876;-53
2022/02/28 08:03:43;;;;;;;;;;;;;;;21.48;37.28;102205.09;7280700;19;152102;-54
2022/02/28 08:06:19;;;;;;;;;;;;;;;21.49;37.77;102196.34;7276426;19;154116;-53
2022/02/28 08:08:52;;;;;;;;;;;;;;;21.52;37.81;102207.03;7279185;19;153061;-53
2022/02/28 08:11:26;;;;;;;;;;;;;;;21.37;35.98;102197.78;7279277;19;152110;-53
2022/02/28 08:14:11;;;;;;;;;;;;;;;21.48;36.53;102199.47;7277223;19;152807;-54
2022/02/28 08:16:40;;;;;;;;;;;;;;;21.51;36.56;102196.06;7285543;19;152827;-53
2022/02/28 08:19:11;;;;;;;;;;;;;;;21.53;36.69;102191.81;7277303;19;153332;-54
2022/02/28 08:21:39;;;;;;;;;;;;;;;21.56;36.72;102196.91;7279121;19;151778;-53
2022/02/28 08:24:06;;;;;;;;;;;;;;;21.57;36.53;102209.00;7278830;19;154006;-54
2022/02/28 08:26:37;;;;;;;;;;;;;;;21.59;36.72;102207.56;7276163;19;153579;-53
2022/02/28 08:31:47;;;;;;;;;;;;;;;21.60;37.28;102200.81;7278067;19;151924;-53
2022/02/28 08:34:17;;;;;;;;;;;;;;;21.59;36.71;102210.38;7273972;19;155672;-54
2022/02/28 08:36:46;;;;;;;;;;;;;;;21.61;36.56;102199.72;7278295;19;152457;-54
2022/02/28 08:39:13;;;;;;;;;;;;;;;21.63;36.78;102200.25;7283761;19;153133;-54
2022/02/28 08:41:41;;;;;;;;;;;;;;;21.62;36.58;102195.75;7276753;19;151997;-54
2022/02/28 08:44:09;;;;;;;;;;;;;;;21.60;36.62;102195.19;7273020;19;152983;-53
2022/02/28 08:46:37;;;;;;;;;;;;;;;21.59;36.53;102196.31;7277892;19;152890;-54
2022/02/28 08:49:08;;;;;;;;;;;;;;;21.59;36.72;102201.94;7277758;19;151904;-54
2022/02/28 08:51:38;;;;;;;;;;;;;;;21.54;36.40;102195.50;7275240;19;152042;-53
2022/02/28 08:54:06;;;;;;;;;;;;;;;21.51;36.87;102198.88;7273311;19;154553;-54
2022/02/28 08:56:40;;;;;;;;;;;;;;;21.52;36.74;102187.34;7278698;19;151943;-54
2022/02/28 08:59:07;;;;;;;;;;;;;;;21.49;36.43;102196.34;7277610;19;151778;-54
2022/02/28 09:01:34;;;;;;;;;;;;;;;21.44;36.54;102195.53;7283158;19;153577;-53
2022/02/28 09:04:02;;;;;;;;;;;;;;;21.42;36.65;102198.63;7278959;19;152707;-54
2022/02/28 09:06:30;;;;;;;;;;;;;;;21.42;36.67;102190.19;7277384;19;153490;-54
2022/02/28 09:09:06;;;;;;;;;;;;;;;21.39;36.27;102204.81;7275849;19;152430;-54
2022/02/28 09:11:41;;;;;;;;;;;;;;;21.33;36.77;102207.91;7275376;19;153283;-54
2022/02/28 09:14:09;;;;;;;;;;;;;;;21.29;36.56;102210.44;7273655;19;152887;-54
2022/02/28 09:16:37;;;;;;;;;;;;;;;21.28;36.19;102206.78;7274608;19;151749;-54
2022/02/28 09:19:07;;;;;;;;;;;;;;;21.26;36.61;102203.41;7277869;19;153955;-54
2022/02/28 09:21:36;;;;;;;;;;;;;;;21.24;36.79;102204.84;7276964;19;154027;-53
2022/02/28 09:24:06;;;;;;;;;;;;;;;21.21;36.60;102200.59;7283627;19;152334;-54
2022/02/28 09:26:36;;;;;;;;;;;;;;;21.20;36.65;102198.09;7273205;19;153744;-54
2022/02/28 09:29:11;;;;;;;;;;;;;;;21.18;36.83;102194.72;7274651;19;151906;-53
2022/02/28 09:31:41;;;;;;;;;;;;;;;21.18;36.89;102194.72;7277082;19;152789;-53
2022/02/28 09:34:11;;;;;;;;;;;;;;;21.14;36.68;102200.06;7272294;19;152354;-54
2022/02/28 09:36:38;;;;;;;;;;;;;;;21.11;36.78;102199.75;7276800;19;152135;-53
2022/02/28 09:39:07;;;;;;;;;;;;;;;21.07;37.02;102205.09;7277587;19;154173;-53
2022/02/28 09:41:36;;;;;;;;;;;;;;;21.06;36.66;102216.63;7275291;19;154067;-54
2022/02/28 09:44:05;;;;;;;;;;;;;;;21.03;36.60;102217.19;7282466;19;152421;-53
2022/02/28 09:46:34;;;;;;;;;;;;;;;21.01;37.01;102216.59;7271397;19;153256;-53
2022/02/28 09:49:06;;;;;;;;;;;;;;;20.98;36.86;102218.03;7276317;19;151918;-53
2022/02/28 09:51:35;;;;;;;;;;;;;;;20.97;36.82;102218.28;7274463;19;152279;-54
2022/02/28 09:54:03;;;;;;;;;;;;;;;20.95;36.85;102207.31;7280516;19;152480;-54
2022/02/28 09:56:31;;;;;;;;;;;;;;;20.96;37.00;102210.97;7280947;19;152114;-53
2022/02/28 09:58:59;;;;;;;;;;;;;;;20.92;37.19;102201.44;7284066;19;153750;-53
2022/02/28 10:01:48;;;;;;;;;;;;;;;20.89;37.01;102207.63;7281048;19;155311;-53
2022/02/28 10:04:18;;;;;;;;;;;;;;;20.86;37.21;102211.81;7281449;19;151621;-53
2022/02/28 10:06:46;;;;;;;;;;;;;;;20.83;36.87;102215.19;7288101;19;152602;-54
2022/02/28 10:09:18;;;;;;;;;;;;;;;20.80;37.19;102213.78;7282607;19;151762;-54
2022/02/28 10:11:49;;;;;;;;;;;;;;;20.81;37.23;102218.28;7279578;19;153402;-53
2022/02/28 10:14:17;;;;;;;;;;;;;;;20.80;37.26;102210.97;7278036;19;153322;-54
2022/02/28 10:16:44;;;;;;;;;;;;;;;20.76;37.36;102223.88;7282118;19;151793;-54
2022/02/28 10:19:13;;;;;;;;;;;;;;;20.74;37.11;102214.91;7282655;19;153063;-53
2022/02/28 10:21:41;;;;;;;;;;;;;;;20.74;37.44;102211.25;7281284;19;153298;-53
2022/02/28 10:24:09;;;;;;;;;;;;;;;20.73;37.43;102216.03;7282998;19;151574;-53
2022/02/28 10:26:41;;;;;;;;;;;;;;;20.71;37.30;102215.47;7278914;19;153901;-53
2022/02/28 10:29:10;;;;;;;;;;;;;;;20.69;37.50;102223.31;7288574;19;152727;-53
2022/02/28 10:31:39;;;;;;;;;;;;;;;20.69;37.16;102214.06;7280222;19;152655;-54
2022/02/28 10:34:16;;;;;;;;;;;;;;;20.67;37.30;102210.69;7278207;19;155826;-53
2022/02/28 10:36:44;;;;;;;;;;;;;;;20.63;37.51;102209.53;7281197;19;152133;-53
2022/02/28 10:39:12;;;;;;;;;;;;;;;20.62;37.57;102200.31;7279179;19;152629;-53
2022/02/28 10:41:41;;;;;;;;;;;;;;;20.60;37.31;102201.69;7279625;19;153313;-53
2022/02/28 10:44:09;;;;;;;;;;;;;;;20.60;37.28;102202.53;7278312;19;152056;-53
2022/02/28 10:46:42;;;;;;;;;;;;;;;20.58;37.28;102201.94;7275146;19;153379;-53
2022/02/28 10:49:11;;;;;;;;;;;;;;;20.56;37.55;102198.59;7279840;19;153738;-59
2022/02/28 10:51:45;;;;;;;;;;;;;;;20.55;37.71;102207.28;7285211;19;152295;-54
2022/02/28 10:54:21;;;;;;;;;;;;;;;20.53;37.50;102206.75;7280396;19;154258;-53
2022/02/28 10:56:50;;;;;;;;;;;;;;;20.51;37.80;102206.16;7280311;19;151939;-53
2022/02/28 10:59:18;;;;;;;;;;;;;;;20.47;37.78;102197.47;7280517;19;153000;-54
2022/02/28 11:01:46;;;;;;;;;;;;;;;20.47;37.82;102196.63;7281577;19;153817;-55
2022/02/28 11:04:13;;;;;;;;;;;;;;;20.44;37.87;102184.00;7278380;19;151744;-53
2022/02/28 11:06:42;;;;;;;;;;;;;;;20.42;37.88;102186.22;7279954;19;152273;-52
2022/02/28 11:09:09;;;;;;;;;;;;;;;20.40;37.82;102189.28;7279834;19;153631;-53
2022/02/28 11:11:37;;;;;;;;;;;;;;;20.35;38.15;102186.47;7282589;19;151605;-54
2022/02/28 11:14:04;;;;;;;;;;;;;;;20.34;37.80;102189.56;7288280;19;152874;-53
2022/02/28 11:16:37;;;;;;;;;;;;;;;20.32;37.90;102177.75;7281108;19;152380;-55
2022/02/28 11:19:04;;;;;;;;;;;;;;;20.29;37.85;102184.75;7282845;19;152853;-52
2022/02/28 11:21:33;;;;;;;;;;;;;;;20.23;37.93;102182.19;7279763;19;153784;-52
2022/02/28 11:24:00;;;;;;;;;;;;;;;20.23;38.11;102188.66;7280947;19;151520;-53
2022/02/28 11:26:27;;;;;;;;;;;;;;;20.21;38.14;102184.47;7281996;19;155793;-53
2022/02/28 11:28:54;;;;;;;;;;;;;;;20.19;38.46;102195.94;7281225;19;153512;-54
2022/02/28 11:31:26;;;;;;;;;;;;;;;20.18;38.31;102199.88;7282654;19;151659;-53
2022/02/28 11:34:03;;;;;;;;;;;;;;;20.15;38.35;102188.34;7278928;19;154487;-52
2022/02/28 11:36:40;;;;;;;;;;;;;;;20.13;38.38;102184.97;7287416;19;155450;-53
2022/02/28 11:39:10;;;;;;;;;;;;;;;20.10;38.56;102185.53;7281019;19;153763;-53
2022/02/28 11:41:37;;;;;;;;;;;;;;;20.06;38.27;102185.25;7251653;19;153730;-53
2022/02/28 11:44:06;;;;;;;;;;;;;;;20.02;38.65;102183.25;7272672;19;153131;-54
2022/02/28 11:46:37;;;;;;;;;;;;;;;20.01;38.78;102176.81;7276831;19;153595;-53
2022/02/28 11:49:06;;;;;;;;;;;;;;;19.97;38.73;102173.72;7274932;19;153894;-53
2022/02/28 11:51:35;;;;;;;;;;;;;;;19.95;38.86;102175.94;7277178;19;152600;-53
2022/02/28 11:54:09;;;;;;;;;;;;;;;19.91;38.93;102180.41;7277352;19;152369;-54
2022/02/28 11:56:37;;;;;;;;;;;;;;;19.91;38.70;102179.56;7286125;19;154416;-54
2022/02/28 11:59:14;;;;;;;;;;;;;;;19.88;38.91;102180.13;7277386;19;155654;-53
2022/02/28 12:01:49;;;;;;;;;;;;;;;19.88;39.02;102180.13;7277387;19;154089;-53
2022/02/28 12:04:20;;;;;;;;;;;;;;;19.86;38.67;102182.34;7277336;19;152398;-53
2022/02/28 12:06:47;;;;;;;;;;;;;;;19.85;38.66;102180.69;7278794;19;152865;-53
2022/02/28 12:09:24;;;;;;;;;;;;;;;19.82;39.14;102186.81;7278467;19;153993;-53
2022/02/28 12:12:09;;;;;;;;;;;;;;;19.81;38.85;102173.91;7278638;19;152185;-53
2022/02/28 12:14:46;;;;;;;;;;;;;;;19.80;39.02;102183.47;7274914;19;153985;-53
2022/02/28 12:20:11;;;;;;;;;;;;;;;19.74;39.34;102188.19;7287994;19;151658;-54
2022/02/28 12:22:48;;;;;;;;;;;;;;;19.74;39.31;102188.19;7276485;19;153384;-53
2022/02/28 12:25:28;;;;;;;;;;;;;;;19.71;39.11;102185.94;7275707;19;151657;-53
2022/02/28 12:27:55;;;;;;;;;;;;;;;19.67;39.23;102176.38;7278652;19;152874;-53
2022/02/28 12:30:32;;;;;;;;;;;;;;;19.65;39.39;102175.81;7274137;19;153476;-54
2022/02/28 12:32:59;;;;;;;;;;;;;;;19.67;39.24;102172.75;7277424;19;151936;-54
2022/02/28 12:35:35;;;;;;;;;;;;;;;19.65;39.57;102166.56;7272128;19;153569;-53
2022/02/28 12:38:03;;;;;;;;;;;;;;;19.62;39.56;102164.31;7277781;19;153400;-54
2022/02/28 12:40:30;;;;;;;;;;;;;;;19.61;39.72;102168.22;7276777;19;152170;-54
2022/02/28 12:42:57;;;;;;;;;;;;;;;19.59;39.78;102162.03;7285494;19;152853;-53